PMI weather

Palma De Mallorca Airport
Palma De Mallorca, Baleares, Spain

Public forecast

Using degrees Celsius for public forecast. Weather courtesy of forecast.io.

Current aviation weather report (METAR) for Palma De Mallorca Airport

Retrieved 2019/11/14 23:30 UTC (0 seconds ago):

LEPA 142330Z 11004KT 070V150 9999 FEW022 08/07 Q1000 NOSIG

Aviation forecast (TAF) for Palma De Mallorca Airport

Retrieved 2019/11/14 18:27 UTC (5 hours ago):

TAF LEPA 141700Z 1418/1518 10004KT 9999 FEW015 SCT020 TX14/1513Z TN05/1506Z BECMG 1501/1502 25012KT TEMPO 1502/1504 25015G25KT